Private Wetterstation Wechselburg
Wetterdaten: Woche 23.05.22 - 29.05.22 (KW21)
Datum Zeit Temp. +2m Bodentemp. Temp.+5cm Temp. Wind Windchill X Diff Temp. Feuchte +2m Feuchte +5cm Luftdruck Regen Wind Richtung Sonnenschein Taupunkt Windchill Windben
23.05.2022 00:00 10,4 C 16,8 C 9,4 C 9,9 C 8,8 C 0,0 C 81 % 85 % 1015,8 hPa 0,0 l/m 0,0 km/h (0 Bft) N 0,00 h 7,3 C 8,8 C 0,0 km/h (0 Bft)
23.05.2022 01:00 9,4 C 16,8 C 8,7 C 9,0 C 8,1 C 0,0 C 83 % 85 % 1015,4 hPa 0,0 l/m 0,0 km/h (0 Bft) N 0,00 h 6,7 C 8,1 C 0,0 km/h (0 Bft)
23.05.2022 02:00 8,8 C 16,6 C 8,1 C 8,3 C 7,5 C 0,0 C 84 % 86 % 1015,1 hPa 0,0 l/m 0,0 km/h (0 Bft) N 0,00 h 6,3 C 7,5 C 0,0 km/h (0 Bft)
23.05.2022 03:00 8,0 C 16,5 C 7,3 C 7,6 C 6,7 C 0,0 C 85 % 86 % 1014,4 hPa 0,0 l/m 0,0 km/h (0 Bft) N 0,00 h 5,7 C 6,7 C 0,0 km/h (0 Bft)
23.05.2022 04:00 7,5 C 16,5 C 7,0 C 7,2 C 6,5 C 0,0 C 86 % 86 % 1013,9 hPa 0,0 l/m 0,0 km/h (0 Bft) N 0,00 h 5,3 C 6,5 C 0,0 km/h (0 Bft)
23.05.2022 05:00 7,1 C 16,3 C 6,5 C 6,8 C 6,1 C 0,0 C 87 % 86 % 1013,7 hPa 0,0 l/m 0,0 km/h (0 Bft) N 0,00 h 5,1 C 6,1 C 0,0 km/h (0 Bft)
23.05.2022 06:00 7,3 C 16,1 C 7,4 C 7,7 C 7,5 C 0,4 C 88 % 86 % 1013,5 hPa 0,0 l/m 0,0 km/h (0 Bft) N 0,00 h 5,5 C 7,5 C 0,0 km/h (0 Bft)
23.05.2022 07:00 9,1 C 15,8 C 10,6 C 12,2 C 12,2 C 3,1 C 88 % 86 % 1012,8 hPa 0,0 l/m 0,2 km/h (0 Bft) NO 0,50 h 7,2 C 12,2 C 0,8 km/h (0 Bft)
23.05.2022 08:00 13,4 C 15,6 C 13,6 C 16,4 C 16,4 C 3,0 C 84 % 82 % 1012,7 hPa 0,0 l/m 1,9 km/h (1 Bft) NO 0,33 h 10,7 C 16,4 C 2,9 km/h (1 Bft)
23.05.2022 09:00 16,1 C 15,6 C 16,4 C 18,8 C 18,8 C 2,7 C 71 % 71 % 1012,2 hPa 0,0 l/m 4,6 km/h (1 Bft) NO 0,08 h 10,9 C 18,8 C 6,1 km/h (2 Bft)
23.05.2022 10:00 18,5 C 15,6 C 18,6 C 22,5 C 22,5 C 4,0 C 63 % 64 % 1011,7 hPa 0,0 l/m 2,7 km/h (1 Bft) NO 0,67 h 11,3 C 22,5 C 3,9 km/h (1 Bft)
23.05.2022 11:00 20,6 C 15,7 C 20,4 C 24,6 C 24,6 C 4,0 C 56 % 57 % 1010,8 hPa 0,0 l/m 3,2 km/h (1 Bft) N-NO 0,58 h 11,4 C 24,6 C 4,5 km/h (1 Bft)
23.05.2022 12:00 22,2 C 15,8 C 22,0 C 26,6 C 26,6 C 4,5 C 51 % 53 % 1009,5 hPa 0,0 l/m 3,5 km/h (1 Bft) NO 1,00 h 11,6 C 26,6 C 5,2 km/h (1 Bft)
23.05.2022 13:00 22,6 C 16,0 C 23,0 C 26,0 C 26,0 C 3,3 C 49 % 50 % 1008,8 hPa 0,0 l/m 5,5 km/h (1 Bft) O-NO 0,58 h 11,5 C 26,0 C 6,6 km/h (2 Bft)
23.05.2022 14:00 22,0 C 16,1 C 21,6 C 23,4 C 23,4 C 1,4 C 52 % 55 % 1009,2 hPa 0,0 l/m 1,6 km/h (1 Bft) NO 0,00 h 11,7 C 23,4 C 2,3 km/h (1 Bft)
23.05.2022 15:00 20,2 C 16,2 C 19,8 C 20,9 C 20,9 C 0,7 C 59 % 63 % 1009,2 hPa 0,0 l/m 2,1 km/h (1 Bft) N-NO 0,00 h 12,0 C 20,9 C 2,8 km/h (1 Bft)
23.05.2022 16:00 19,6 C 16,3 C 19,3 C 20,4 C 20,4 C 0,8 C 62 % 65 % 1008,4 hPa 0,0 l/m 4,7 km/h (1 Bft) NO 0,00 h 12,2 C 20,4 C 5,9 km/h (2 Bft)
23.05.2022 17:00 19,8 C 16,4 C 20,1 C 21,1 C 21,1 C 1,3 C 63 % 64 % 1007,4 hPa 0,0 l/m 7,2 km/h (2 Bft) O-NO 0,00 h 12,6 C 21,1 C 7,4 km/h (2 Bft)
23.05.2022 18:00 21,5 C 16,5 C 21,5 C 22,8 C 22,8 C 1,3 C 58 % 59 % 1005,9 hPa 0,0 l/m 8,3 km/h (2 Bft) O-NO 0,00 h 12,8 C 22,8 C 11,1 km/h (2 Bft)
23.05.2022 19:00 21,4 C 16,6 C 20,5 C 21,7 C 21,7 C 0,3 C 56 % 58 % 1005,0 hPa 0,0 l/m 5,8 km/h (2 Bft) O-NO 0,00 h 12,2 C 21,7 C 6,8 km/h (2 Bft)
23.05.2022 20:00 20,6 C 16,7 C 19,0 C 20,4 C 20,1 C 0,0 C 56 % 61 % 1004,7 hPa 0,0 l/m 2,3 km/h (1 Bft) NO 0,00 h 11,4 C 20,1 C 2,8 km/h (1 Bft)
23.05.2022 21:00 18,7 C 16,8 C 17,0 C 18,4 C 17,7 C 0,0 C 61 % 67 % 1005,3 hPa 0,0 l/m 0,2 km/h (0 Bft) N 0,00 h 10,9 C 17,7 C 0,4 km/h (0 Bft)
23.05.2022 22:00 17,4 C 16,8 C 16,0 C 17,3 C 16,9 C 0,0 C 65 % 70 % 1005,0 hPa 0,0 l/m 0,4 km/h (0 Bft) N-NO 0,00 h 10,8 C 16,9 C 0,5 km/h (0 Bft)
23.05.2022 23:00 17,5 C 16,7 C 16,3 C 17,6 C 17,6 C 0,1 C 68 % 73 % 1004,0 hPa 0,0 l/m 0,1 km/h (0 Bft) N 0,00 h 11,6 C 17,6 C 0,3 km/h (0 Bft)
24.05.2022 00:00 18,0 C 16,8 C 16,9 C 18,1 C 18,1 C 0,1 C 68 % 72 % 1003,9 hPa 0,0 l/m 0,2 km/h (0 Bft) N 0,00 h 12,0 C 18,1 C 0,1 km/h (0 Bft)
24.05.2022 01:00 18,5 C 16,7 C 17,1 C 18,4 C 18,3 C 0,0 C 70 % 74 % 1003,6 hPa 0,0 l/m 2,4 km/h (1 Bft) S-SO 0,00 h 12,8 C 18,3 C 5,2 km/h (1 Bft)
24.05.2022 02:00 19,5 C 16,7 C 18,1 C 19,3 C 19,1 C 0,0 C 70 % 74 % 1003,7 hPa 0,0 l/m 5,8 km/h (2 Bft) S 0,00 h 13,9 C 19,1 C 10,5 km/h (2 Bft)
24.05.2022 03:00 18,9 C 16,8 C 17,8 C 18,8 C 18,5 C 0,0 C 74 % 76 % 1004,1 hPa 0,0 l/m 4,6 km/h (1 Bft) SO 0,00 h 14,1 C 18,5 C 6,9 km/h (2 Bft)
24.05.2022 04:00 18,3 C 16,9 C 17,4 C 18,2 C 17,9 C 0,0 C 76 % 78 % 1004,1 hPa 0,0 l/m 4,7 km/h (1 Bft) S-SO 0,00 h 13,9 C 17,9 C 5,1 km/h (1 Bft)
24.05.2022 05:00 17,8 C 17,0 C 16,8 C 17,6 C 17,4 C 0,0 C 77 % 79 % 1004,7 hPa 0,0 l/m 2,9 km/h (1 Bft) S 0,00 h 13,7 C 17,4 C 4,6 km/h (1 Bft)
24.05.2022 06:00 17,6 C 17,0 C 16,9 C 17,8 C 17,8 C 0,2 C 79 % 80 % 1005,2 hPa 0,0 l/m 3,5 km/h (1 Bft) S-SO 0,00 h 13,8 C 17,8 C 6,1 km/h (2 Bft)
24.05.2022 07:00 17,5 C 17,0 C 16,8 C 17,6 C 17,6 C 0,1 C 79 % 81 % 1005,6 hPa 0,0 l/m 0,1 km/h (0 Bft) N 0,00 h 13,9 C 17,6 C 0,0 km/h (0 Bft)
24.05.2022 08:00 17,7 C 17,0 C 17,4 C 18,9 C 18,9 C 1,3 C 78 % 78 % 1006,3 hPa 0,0 l/m 0,4 km/h (0 Bft) N 0,00 h 13,8 C 18,9 C 1,8 km/h (1 Bft)
24.05.2022 09:00 18,1 C 16,9 C 17,9 C 20,1 C 20,1 C 2,0 C 75 % 75 % 1006,9 hPa 0,0 l/m 0,2 km/h (0 Bft) N 0,08 h 13,5 C 20,1 C 0,2 km/h (0 Bft)
24.05.2022 10:00 19,2 C 16,9 C 19,4 C 23,1 C 23,1 C 3,9 C 71 % 71 % 1007,2 hPa 0,0 l/m 0,1 km/h (0 Bft) N 1,00 h 13,8 C 23,1 C 0,4 km/h (0 Bft)
24.05.2022 11:00 20,5 C 16,9 C 21,2 C 25,8 C 25,8 C 5,3 C 68 % 68 % 1007,6 hPa 0,0 l/m 0,8 km/h (0 Bft) W-SW 1,00 h 14,4 C 25,8 C 1,1 km/h (0 Bft)
24.05.2022 12:00 21,8 C 16,9 C 22,5 C 27,4 C 27,4 C 5,6 C 60 % 59 % 1007,5 hPa 0,0 l/m 2,0 km/h (1 Bft) SW 1,00 h 13,7 C 27,4 C 3,2 km/h (1 Bft)
24.05.2022 13:00 21,5 C 17,0 C 22,1 C 24,1 C 24,1 C 2,6 C 57 % 56 % 1007,9 hPa 0,0 l/m 3,1 km/h (1 Bft) SO 0,33 h 12,7 C 24,1 C 6,0 km/h (2 Bft)
24.05.2022 14:00 20,3 C 17,0 C 20,6 C 21,9 C 21,9 C 1,6 C 61 % 61 % 1008,7 hPa 0,0 l/m 3,1 km/h (1 Bft) SW 0,17 h 12,6 C 21,9 C 5,1 km/h (1 Bft)
24.05.2022 15:00 20,4 C 17,0 C 21,6 C 26,1 C 26,1 C 5,7 C 61 % 57 % 1009,6 hPa 0,0 l/m 2,9 km/h (1 Bft) SW 1,00 h 12,7 C 26,1 C 5,5 km/h (1 Bft)
24.05.2022 16:00 20,8 C 17,1 C 21,6 C 26,2 C 26,2 C 5,4 C 62 % 59 % 1009,6 hPa 0,0 l/m 1,3 km/h (1 Bft) S-SO 1,00 h 13,2 C 26,2 C 2,0 km/h (1 Bft)
24.05.2022 17:00 20,1 C 17,1 C 20,4 C 22,2 C 22,2 C 2,1 C 61 % 59 % 1010,1 hPa 0,0 l/m 1,3 km/h (1 Bft) SW 0,08 h 12,4 C 22,2 C 2,0 km/h (1 Bft)
24.05.2022 18:00 20,3 C 17,1 C 20,2 C 21,6 C 21,6 C 1,3 C 59 % 57 % 1010,5 hPa 0,0 l/m 1,6 km/h (1 Bft) S-SO 0,00 h 11,9 C 21,6 C 2,2 km/h (1 Bft)
24.05.2022 19:00 20,0 C 17,1 C 19,5 C 22,4 C 22,4 C 2,5 C 56 % 55 % 1011,1 hPa 0,0 l/m 1,3 km/h (1 Bft) S 0,50 h 10,9 C 22,4 C 2,1 km/h (1 Bft)
24.05.2022 20:00 18,9 C 17,1 C 18,2 C 21,1 C 21,1 C 2,2 C 57 % 59 % 1011,6 hPa 0,0 l/m 0,1 km/h (0 Bft) N 0,92 h 10,2 C 21,1 C 0,3 km/h (0 Bft)
24.05.2022 21:00 17,6 C 17,1 C 16,6 C 17,4 C 16,9 C 0,0 C 63 % 67 % 1012,6 hPa 0,0 l/m 0,1 km/h (0 Bft) N 0,00 h 10,4 C 16,9 C 0,0 km/h (0 Bft)
24.05.2022 22:00 16,4 C 17,2 C 15,3 C 16,0 C 15,2 C 0,0 C 65 % 68 % 1013,5 hPa 0,0 l/m 0,0 km/h (0 Bft) N 0,00 h 9,8 C 15,2 C 0,0 km/h (0 Bft)
24.05.2022 23:00 14,2 C 17,1 C 13,0 C 13,7 C 12,5 C 0,0 C 71 % 76 % 1013,9 hPa 0,0 l/m 0,0 km/h (0 Bft) N 0,00 h 9,0 C 12,5 C 0,0 km/h (0 Bft)
25.05.2022 00:00 12,2 C 17,2 C 10,9 C 11,4 C 10,0 C 0,0 C 76 % 81 % 1014,2 hPa 0,0 l/m 0,0 km/h (0 Bft) N 0,00 h 8,0 C 10,0 C 0,0 km/h (0 Bft)
25.05.2022 01:00 10,5 C 17,1 C 9,5 C 9,9 C 8,7 C 0,0 C 81 % 84 % 1014,2 hPa 0,0 l/m 0,0 km/h (0 Bft) N 0,00 h 7,3 C 8,7 C 0,0 km/h (0 Bft)
25.05.2022 02:00 9,5 C 17,0 C 8,7 C 9,0 C 8,1 C 0,0 C 83 % 85 % 1014,7 hPa 0,0 l/m 0,0 km/h (0 Bft) N 0,00 h 6,8 C 8,1 C 0,0 km/h (0 Bft)
25.05.2022 03:00 9,1 C 16,9 C 8,6 C 8,7 C 8,1 C 0,0 C 85 % 86 % 1015,2 hPa 0,0 l/m 0,0 km/h (0 Bft) N 0,00 h 6,7 C 8,1 C 0,0 km/h (0 Bft)
25.05.2022 04:00 9,1 C 16,7 C 8,8 C 8,8 C 8,3 C 0,0 C 86 % 86 % 1014,8 hPa 0,0 l/m 0,0 km/h (0 Bft) N 0,00 h 6,9 C 8,3 C 0,0 km/h (0 Bft)
25.05.2022 05:00 9,3 C 16,6 C 9,3 C 9,2 C 9,0 C 0,0 C 87 % 86 % 1015,6 hPa 0,0 l/m 0,0 km/h (0 Bft) N 0,00 h 7,3 C 9,0 C 0,0 km/h (0 Bft)
25.05.2022 06:00 9,9 C 16,4 C 10,2 C 10,3 C 10,3 C 0,4 C 88 % 86 % 1016,1 hPa 0,0 l/m 0,0 km/h (0 Bft) N 0,00 h 8,0 C 10,3 C 0,0 km/h (0 Bft)
25.05.2022 07:00 11,1 C 16,2 C 12,0 C 13,0 C 13,0 C 1,9 C 88 % 85 % 1016,0 hPa 0,0 l/m 0,0 km/h (0 Bft) N 0,00 h 9,2 C 13,0 C 0,0 km/h (0 Bft)
25.05.2022 08:00 13,2 C 16,1 C 13,6 C 15,0 C 15,0 C 1,8 C 87 % 83 % 1017,0 hPa 0,0 l/m 0,1 km/h (0 Bft) N 0,00 h 11,0 C 15,0 C 0,2 km/h (0 Bft)
25.05.2022 09:00 14,8 C 15,9 C 15,0 C 16,6 C 16,6 C 1,9 C 81 % 81 % 1017,4 hPa 0,0 l/m 0,5 km/h (0 Bft) S 0,00 h 11,5 C 16,6 C 2,0 km/h (1 Bft)
25.05.2022 10:00 15,6 C 15,9 C 16,1 C 18,2 C 18,2 C 2,6 C 71 % 72 % 1017,7 hPa 0,0 l/m 1,4 km/h (1 Bft) S 0,17 h 10,4 C 18,2 C 3,6 km/h (1 Bft)
25.05.2022 11:00 16,6 C 15,9 C 16,0 C 19,1 C 19,1 C 2,6 C 66 % 69 % 1017,6 hPa 0,0 l/m 0,6 km/h (0 Bft) S 0,17 h 10,2 C 19,1 C 0,8 km/h (0 Bft)
25.05.2022 12:00 18,8 C 15,8 C 17,1 C 25,5 C 25,5 C 6,7 C 60 % 66 % 1017,7 hPa 0,0 l/m 1,5 km/h (1 Bft) S 1,00 h 10,8 C 25,5 C 4,8 km/h (1 Bft)
25.05.2022 13:00 21,8 C 15,9 C 19,9 C 26,9 C 26,9 C 5,0 C 50 % 56 % 1017,3 hPa 0,0 l/m 1,7 km/h (1 Bft) S 1,00 h 11,0 C 26,9 C 3,3 km/h (1 Bft)
25.05.2022 14:00 21,9 C 16,0 C 22,5 C 25,5 C 25,5 C 3,6 C 47 % 48 % 1017,0 hPa 0,0 l/m 1,9 km/h (1 Bft) S 0,50 h 10,0 C 25,5 C 3,5 km/h (1 Bft)
25.05.2022 15:00 21,6 C 16,1 C 22,6 C 28,5 C 28,5 C 7,0 C 49 % 47 % 1016,9 hPa 0,0 l/m 0,9 km/h (0 Bft) SO 1,00 h 10,3 C 28,5 C 2,0 km/h (1 Bft)
25.05.2022 16:00 21,5 C 16,2 C 22,7 C 27,8 C 27,8 C 6,3 C 47 % 45 % 1016,8 hPa 0,0 l/m 1,1 km/h (1 Bft) W 1,00 h 9,7 C 27,8 C 2,0 km/h (1 Bft)
25.05.2022 17:00 21,1 C 16,3 C 21,3 C 23,7 C 23,7 C 2,5 C 47 % 47 % 1016,8 hPa 0,0 l/m 0,5 km/h (0 Bft) N 0,08 h 9,3 C 23,7 C 0,3 km/h (0 Bft)
25.05.2022 18:00 21,1 C 16,3 C 20,8 C 23,3 C 23,3 C 2,3 C 48 % 49 % 1016,7 hPa 0,0 l/m 0,4 km/h (0 Bft) N 0,00 h 9,6 C 23,3 C 0,8 km/h (0 Bft)
25.05.2022 19:00 20,2 C 16,4 C 18,9 C 20,4 C 20,3 C 0,2 C 49 % 55 % 1017,0 hPa 0,0 l/m 0,0 km/h (0 Bft) N 0,00 h 9,3 C 20,3 C 0,0 km/h (0 Bft)
25.05.2022 20:00 18,9 C 16,5 C 17,1 C 18,7 C 18,2 C 0,1 C 55 % 61 % 1017,4 hPa 0,0 l/m 0,0 km/h (0 Bft) N 0,00 h 9,5 C 18,2 C 0,0 km/h (0 Bft)
25.05.2022 21:00 16,6 C 16,6 C 14,8 C 16,0 C 14,7 C 0,0 C 60 % 67 % 1018,4 hPa 0,0 l/m 0,0 km/h (0 Bft) N 0,00 h 8,7 C 14,7 C 0,0 km/h (0 Bft)
25.05.2022 22:00 13,8 C 16,7 C 12,7 C 13,4 C 12,4 C 0,0 C 68 % 73 % 1018,7 hPa 0,0 l/m 0,0 km/h (0 Bft) N 0,00 h 8,1 C 12,4 C 0,0 km/h (0 Bft)
25.05.2022 23:00 12,1 C 16,6 C 11,0 C 11,7 C 10,7 C 0,0 C 73 % 78 % 1019,4 hPa 0,0 l/m 0,0 km/h (0 Bft) N 0,00 h 7,5 C 10,7 C 0,0 km/h (0 Bft)
26.05.2022 00:00 10,9 C 16,5 C 10,1 C 10,6 C 9,8 C 0,0 C 78 % 81 % 1019,4 hPa 0,0 l/m 0,0 km/h (0 Bft) N 0,00 h 7,2 C 9,8 C 0,0 km/h (0 Bft)
26.05.2022 01:00 10,7 C 16,4 C 10,3 C 10,6 C 10,3 C 0,0 C 80 % 82 % 1019,5 hPa 0,0 l/m 0,0 km/h (0 Bft) N 0,00 h 7,3 C 10,3 C 0,0 km/h (0 Bft)
26.05.2022 02:00 12,0 C 16,2 C 11,7 C 12,5 C 12,5 C 0,5 C 75 % 76 % 1019,2 hPa 0,0 l/m 2,6 km/h (1 Bft) S-SO 0,00 h 7,7 C 12,5 C 4,9 km/h (1 Bft)
26.05.2022 03:00 13,7 C 16,1 C 12,8 C 13,8 C 13,8 C 0,1 C 66 % 70 % 1019,3 hPa 0,0 l/m 4,1 km/h (1 Bft) S 0,00 h 7,5 C 13,8 C 5,6 km/h (1 Bft)
26.05.2022 04:00 14,0 C 16,0 C 13,1 C 13,9 C 13,8 C 0,0 C 64 % 68 % 1019,3 hPa 0,0 l/m 2,7 km/h (1 Bft) SO 0,00 h 7,3 C 13,8 C 3,5 km/h (1 Bft)
26.05.2022 05:00 14,1 C 15,9 C 13,1 C 14,0 C 13,8 C 0,0 C 63 % 67 % 1019,5 hPa 0,0 l/m 3,4 km/h (1 Bft) S 0,00 h 7,2 C 13,8 C 5,1 km/h (1 Bft)
26.05.2022 06:00 14,2 C 15,8 C 13,5 C 14,5 C 14,5 C 0,3 C 64 % 70 % 1020,0 hPa 0,0 l/m 3,5 km/h (1 Bft) S-SO 0,00 h 7,5 C 14,5 C 5,0 km/h (1 Bft)
26.05.2022 07:00 15,0 C 15,8 C 14,8 C 17,1 C 17,1 C 2,1 C 65 % 68 % 1020,2 hPa 0,0 l/m 0,8 km/h (0 Bft) S 0,17 h 8,5 C 17,1 C 1,9 km/h (1 Bft)
26.05.2022 08:00 16,8 C 15,8 C 16,8 C 21,1 C 21,1 C 4,3 C 62 % 63 % 1020,8 hPa 0,0 l/m 2,0 km/h (1 Bft) S-SO 0,50 h 9,4 C 21,1 C 3,9 km/h (1 Bft)
26.05.2022 09:00 16,9 C 15,8 C 17,6 C 19,9 C 19,9 C 3,0 C 61 % 60 % 1021,2 hPa 0,0 l/m 2,5 km/h (1 Bft) S-SW 0,25 h 9,4 C 19,9 C 5,2 km/h (1 Bft)
26.05.2022 10:00 17,6 C 15,8 C 18,6 C 22,0 C 22,0 C 4,5 C 61 % 58 % 1021,7 hPa 0,0 l/m 3,2 km/h (1 Bft) S-SW 1,00 h 9,9 C 22,0 C 5,5 km/h (1 Bft)
26.05.2022 11:00 18,4 C 15,8 C 18,8 C 21,8 C 21,8 C 3,3 C 59 % 57 % 1021,8 hPa 0,0 l/m 3,2 km/h (1 Bft) W-SW 0,33 h 10,3 C 21,8 C 3,5 km/h (1 Bft)
26.05.2022 12:00 19,1 C 15,9 C 19,1 C 22,4 C 22,4 C 3,3 C 57 % 56 % 1022,0 hPa 0,0 l/m 2,9 km/h (1 Bft) W 0,42 h 10,5 C 22,4 C 3,9 km/h (1 Bft)
26.05.2022 13:00 19,8 C 15,9 C 20,5 C 23,6 C 23,6 C 3,8 C 54 % 51 % 1021,9 hPa 0,0 l/m 2,9 km/h (1 Bft) S 1,00 h 10,2 C 23,6 C 4,7 km/h (1 Bft)
26.05.2022 14:00 20,4 C 16,0 C 21,1 C 23,5 C 23,5 C 3,1 C 53 % 51 % 1021,7 hPa 0,0 l/m 1,9 km/h (1 Bft) SW 0,33 h 10,5 C 23,5 C 3,2 km/h (1 Bft)
26.05.2022 15:00 20,4 C 16,1 C 21,4 C 24,7 C 24,7 C 4,3 C 55 % 51 % 1021,6 hPa 0,0 l/m 3,0 km/h (1 Bft) W-SW 0,67 h 10,9 C 24,7 C 5,6 km/h (1 Bft)
26.05.2022 16:00 20,5 C 16,2 C 21,4 C 24,1 C 24,1 C 3,6 C 53 % 49 % 1021,5 hPa 0,0 l/m 3,4 km/h (1 Bft) W-SW 0,42 h 10,6 C 24,1 C 5,5 km/h (1 Bft)
26.05.2022 17:00 20,0 C 16,3 C 20,9 C 22,7 C 22,7 C 2,7 C 55 % 52 % 1021,5 hPa 0,0 l/m 2,2 km/h (1 Bft) SW 0,17 h 10,7 C 22,7 C 2,5 km/h (1 Bft)
26.05.2022 18:00 19,9 C 16,3 C 20,1 C 21,1 C 21,1 C 1,3 C 55 % 53 % 1021,3 hPa 0,0 l/m 1,4 km/h (1 Bft) W 0,00 h 10,6 C 21,1 C 2,8 km/h (1 Bft)
26.05.2022 19:00 19,3 C 16,4 C 18,8 C 19,4 C 19,3 C 0,2 C 55 % 56 % 1021,2 hPa 0,0 l/m 1,1 km/h (1 Bft) S-SW 0,00 h 10,1 C 19,3 C 1,7 km/h (1 Bft)
26.05.2022 20:00 18,6 C 16,4 C 17,8 C 18,5 C 18,2 C 0,0 C 58 % 59 % 1020,8 hPa 0,0 l/m 0,3 km/h (0 Bft) N 0,00 h 10,1 C 18,2 C 0,6 km/h (0 Bft)
26.05.2022 21:00 18,0 C 16,5 C 17,1 C 17,8 C 17,4 C 0,0 C 60 % 62 % 1021,0 hPa 0,0 l/m 0,1 km/h (0 Bft) N 0,00 h 10,0 C 17,4 C 0,1 km/h (0 Bft)
26.05.2022 22:00 17,5 C 16,5 C 16,6 C 17,4 C 17,1 C 0,0 C 62 % 64 % 1021,1 hPa 0,0 l/m 2,1 km/h (1 Bft) S 0,00 h 10,1 C 17,1 C 3,3 km/h (1 Bft)
26.05.2022 23:00 16,9 C 16,5 C 15,7 C 16,7 C 16,2 C 0,0 C 63 % 65 % 1020,8 hPa 0,0 l/m 2,4 km/h (1 Bft) S-SO 0,00 h 9,9 C 16,2 C 3,8 km/h (1 Bft)
27.05.2022 00:00 16,4 C 16,5 C 15,3 C 16,2 C 15,7 C 0,0 C 65 % 67 % 1020,7 hPa 0,0 l/m 1,9 km/h (1 Bft) S-SO 0,00 h 9,8 C 15,7 C 3,9 km/h (1 Bft)
27.05.2022 01:00 16,6 C 16,5 C 15,8 C 16,5 C 16,4 C 0,0 C 66 % 67 % 1020,3 hPa 0,0 l/m 3,1 km/h (1 Bft) W-SW 0,00 h 10,1 C 16,4 C 6,6 km/h (2 Bft)
27.05.2022 02:00 17,2 C 16,5 C 16,4 C 17,1 C 17,0 C 0,0 C 64 % 65 % 1019,7 hPa 0,0 l/m 3,0 km/h (1 Bft) SO 0,00 h 10,2 C 17,0 C 3,7 km/h (1 Bft)
27.05.2022 03:00 17,0 C 16,4 C 16,2 C 16,9 C 16,7 C 0,0 C 64 % 65 % 1019,3 hPa 0,0 l/m 3,5 km/h (1 Bft) S 0,00 h 10,1 C 16,7 C 5,4 km/h (1 Bft)
27.05.2022 04:00 16,6 C 16,4 C 15,8 C 16,5 C 16,2 C 0,0 C 66 % 67 % 1018,9 hPa 0,0 l/m 1,9 km/h (1 Bft) S-SO 0,00 h 10,2 C 16,2 C 2,6 km/h (1 Bft)
27.05.2022 05:00 16,2 C 16,4 C 15,5 C 16,1 C 15,9 C 0,0 C 68 % 69 % 1018,6 hPa 0,0 l/m 0,8 km/h (0 Bft) S 0,00 h 10,2 C 15,9 C 1,6 km/h (1 Bft)
27.05.2022 06:00 16,0 C 16,3 C 15,5 C 16,0 C 16,0 C 0,0 C 70 % 71 % 1018,5 hPa 0,0 l/m 1,2 km/h (1 Bft) W-SW 0,00 h 10,4 C 16,0 C 2,2 km/h (1 Bft)
27.05.2022 07:00 15,7 C 16,4 C 15,3 C 15,6 C 15,5 C 0,0 C 73 % 76 % 1018,2 hPa 0,0 l/m 1,3 km/h (1 Bft) SW 0,00 h 11,0 C 15,5 C 1,9 km/h (1 Bft)
27.05.2022 08:00 15,0 C 16,6 C 14,7 C 14,8 C 14,4 C 0,0 C 80 % 81 % 1018,6 hPa 0,0 l/m 1,4 km/h (1 Bft) SW 0,00 h 11,5 C 14,4 C 1,7 km/h (1 Bft)
27.05.2022 09:00 14,4 C 16,7 C 14,3 C 14,4 C 14,3 C 0,1 C 85 % 84 % 1018,8 hPa 0,0 l/m 1,8 km/h (1 Bft) SW 0,00 h 11,8 C 14,3 C 2,4 km/h (1 Bft)
27.05.2022 10:00 12,2 C 16,7 C 12,2 C 12,5 C 12,3 C 0,3 C 85 % 85 % 1019,1 hPa 1,4 l/m 1,6 km/h (1 Bft) NO 0,00 h 9,7 C 12,3 C 1,4 km/h (1 Bft)
27.05.2022 11:00 12,0 C 16,5 C 13,3 C 13,9 C 13,9 C 1,9 C 86 % 85 % 1019,1 hPa 0,0 l/m 0,9 km/h (0 Bft) S-SO 0,08 h 9,7 C 13,9 C 2,2 km/h (1 Bft)
27.05.2022 12:00 12,6 C 16,2 C 14,4 C 15,9 C 15,9 C 3,3 C 86 % 85 % 1018,9 hPa 0,0 l/m 1,5 km/h (1 Bft) S-SW 0,67 h 10,3 C 15,9 C 2,9 km/h (1 Bft)
27.05.2022 13:00 13,9 C 16,1 C 15,1 C 17,8 C 17,8 C 3,9 C 86 % 84 % 1018,7 hPa 0,0 l/m 1,3 km/h (1 Bft) S-SW 0,67 h 11,6 C 17,8 C 2,3 km/h (1 Bft)
27.05.2022 14:00 14,4 C 16,0 C 17,9 C 21,0 C 21,0 C 6,6 C 84 % 79 % 1018,1 hPa 0,0 l/m 2,5 km/h (1 Bft) S-SW 1,00 h 11,7 C 21,0 C 4,1 km/h (1 Bft)
27.05.2022 15:00 17,6 C 15,9 C 18,8 C 22,8 C 22,8 C 5,2 C 65 % 64 % 1017,8 hPa 0,0 l/m 4,2 km/h (1 Bft) S 1,00 h 11,0 C 22,8 C 5,7 km/h (1 Bft)
27.05.2022 16:00 17,9 C 15,9 C 18,5 C 21,8 C 21,8 C 3,9 C 60 % 59 % 1017,5 hPa 0,0 l/m 3,5 km/h (1 Bft) SW 0,58 h 10,1 C 21,8 C 5,9 km/h (2 Bft)
27.05.2022 17:00 18,3 C 15,9 C 18,5 C 20,2 C 20,2 C 1,9 C 53 % 51 % 1017,3 hPa 0,0 l/m 3,9 km/h (1 Bft) W-SW 0,00 h 8,5 C 20,2 C 4,7 km/h (1 Bft)
27.05.2022 18:00 18,0 C 15,8 C 17,9 C 19,5 C 19,5 C 1,4 C 50 % 48 % 1017,4 hPa 0,0 l/m 3,4 km/h (1 Bft) W 0,00 h 7,4 C 19,5 C 4,9 km/h (1 Bft)
27.05.2022 19:00 17,7 C 15,8 C 17,3 C 19,9 C 19,9 C 2,2 C 46 % 45 % 1018,1 hPa 0,0 l/m 3,3 km/h (1 Bft) SW 0,33 h 6,0 C 19,9 C 4,5 km/h (1 Bft)
27.05.2022 20:00 16,1 C 15,8 C 15,4 C 17,4 C 17,3 C 1,3 C 48 % 49 % 1018,1 hPa 0,0 l/m 2,3 km/h (1 Bft) W 0,75 h 5,0 C 17,3 C 4,4 km/h (1 Bft)
27.05.2022 21:00 14,7 C 15,7 C 13,7 C 14,2 C 13,3 C 0,0 C 51 % 54 % 1018,6 hPa 0,0 l/m 1,1 km/h (1 Bft) S 0,00 h 4,7 C 13,3 C 1,7 km/h (1 Bft)
27.05.2022 22:00 13,5 C 15,6 C 12,5 C 13,0 C 12,0 C 0,0 C 55 % 58 % 1019,1 hPa 0,0 l/m 0,8 km/h (0 Bft) S-SW 0,00 h 4,6 C 12,0 C 2,4 km/h (1 Bft)
27.05.2022 23:00 12,6 C 15,6 C 11,5 C 12,0 C 11,0 C 0,0 C 59 % 63 % 1019,7 hPa 0,0 l/m 0,5 km/h (0 Bft) SW 0,00 h 4,7 C 11,0 C 1,0 km/h (0 Bft)
28.05.2022 00:00 12,0 C 15,5 C 11,1 C 11,6 C 10,7 C 0,0 C 59 % 63 % 1020,0 hPa 0,0 l/m 1,4 km/h (1 Bft) SW 0,00 h 4,3 C 10,7 C 2,2 km/h (1 Bft)
28.05.2022 01:00 11,1 C 15,3 C 10,1 C 10,6 C 9,5 C 0,0 C 63 % 67 % 1020,1 hPa 0,0 l/m 0,4 km/h (0 Bft) N 0,00 h 4,2 C 9,5 C 1,4 km/h (1 Bft)
28.05.2022 02:00 9,8 C 15,2 C 8,9 C 9,3 C 8,2 C 0,0 C 67 % 72 % 1020,1 hPa 0,0 l/m 0,4 km/h (0 Bft) N 0,00 h 4,1 C 8,2 C 0,8 km/h (0 Bft)
28.05.2022 03:00 9,2 C 15,1 C 8,5 C 8,8 C 7,9 C 0,0 C 70 % 74 % 1019,8 hPa 0,0 l/m 0,7 km/h (0 Bft) S 0,00 h 4,1 C 7,9 C 1,5 km/h (1 Bft)
28.05.2022 04:00 9,1 C 15,0 C 8,7 C 8,9 C 8,5 C 0,0 C 71 % 74 % 1019,3 hPa 0,0 l/m 1,2 km/h (1 Bft) SW 0,00 h 4,2 C 8,5 C 2,3 km/h (1 Bft)
28.05.2022 05:00 8,9 C 14,8 C 8,2 C 8,6 C 7,9 C 0,0 C 72 % 75 % 1019,2 hPa 0,0 l/m 1,3 km/h (1 Bft) W-SW 0,00 h 4,1 C 7,9 C 2,8 km/h (1 Bft)
28.05.2022 06:00 9,4 C 14,7 C 9,3 C 9,8 C 9,8 C 0,5 C 73 % 75 % 1019,0 hPa 0,0 l/m 2,1 km/h (1 Bft) W-SW 0,00 h 4,7 C 9,8 C 3,5 km/h (1 Bft)
28.05.2022 07:00 9,6 C 14,6 C 9,7 C 10,2 C 10,2 C 0,5 C 73 % 74 % 1019,1 hPa 0,0 l/m 2,2 km/h (1 Bft) W-SW 0,00 h 5,0 C 10,2 C 3,4 km/h (1 Bft)
28.05.2022 08:00 10,1 C 14,4 C 9,3 C 15,5 C 15,5 C 5,3 C 75 % 77 % 1019,1 hPa 0,0 l/m 1,4 km/h (1 Bft) S-SO 0,67 h 5,9 C 15,5 C 1,8 km/h (1 Bft)
28.05.2022 09:00 11,3 C 14,2 C 11,0 C 15,7 C 15,7 C 4,4 C 69 % 71 % 1018,9 hPa 0,0 l/m 3,4 km/h (1 Bft) SO 0,42 h 5,8 C 15,7 C 7,2 km/h (2 Bft)
28.05.2022 10:00 11,9 C 14,2 C 12,5 C 14,9 C 14,9 C 3,0 C 63 % 60 % 1018,9 hPa 0,0 l/m 4,0 km/h (1 Bft) W 0,25 h 5,0 C 14,9 C 8,4 km/h (2 Bft)
28.05.2022 11:00 12,6 C 14,1 C 13,2 C 15,6 C 15,6 C 3,0 C 61 % 58 % 1018,9 hPa 0,0 l/m 3,9 km/h (1 Bft) SO 0,33 h 5,2 C 15,6 C 5,9 km/h (2 Bft)
28.05.2022 12:00 13,5 C 14,0 C 14,3 C 17,2 C 17,2 C 3,7 C 58 % 55 % 1019,0 hPa 0,0 l/m 3,6 km/h (1 Bft) S 0,75 h 5,4 C 17,2 C 5,4 km/h (1 Bft)
28.05.2022 13:00 14,9 C 14,1 C 15,5 C 19,3 C 19,3 C 4,4 C 54 % 51 % 1018,7 hPa 0,0 l/m 4,2 km/h (1 Bft) S 1,00 h 5,7 C 19,3 C 5,4 km/h (1 Bft)
28.05.2022 14:00 15,7 C 14,0 C 17,8 C 20,5 C 20,5 C 4,8 C 49 % 44 % 1018,5 hPa 0,0 l/m 3,5 km/h (1 Bft) SW 1,00 h 5,2 C 20,5 C 4,8 km/h (1 Bft)
28.05.2022 15:00 15,5 C 14,1 C 16,7 C 18,8 C 18,8 C 3,3 C 49 % 44 % 1018,4 hPa 0,0 l/m 3,4 km/h (1 Bft) W 0,58 h 4,7 C 18,8 C 4,7 km/h (1 Bft)
28.05.2022 16:00 15,6 C 14,1 C 16,5 C 18,9 C 18,9 C 3,3 C 49 % 46 % 1018,3 hPa 0,0 l/m 2,9 km/h (1 Bft) W-SW 0,42 h 4,9 C 18,9 C 4,1 km/h (1 Bft)
28.05.2022 17:00 13,8 C 14,3 C 13,8 C 14,3 C 14,1 C 0,6 C 60 % 61 % 1018,6 hPa 0,0 l/m 2,0 km/h (1 Bft) SW 0,00 h 6,1 C 14,1 C 2,5 km/h (1 Bft)
28.05.2022 18:00 14,0 C 14,3 C 14,2 C 15,7 C 15,7 C 1,8 C 60 % 60 % 1018,3 hPa 0,0 l/m 1,1 km/h (1 Bft) S-SO 0,00 h 6,3 C 15,7 C 2,1 km/h (1 Bft)
28.05.2022 19:00 12,0 C 14,4 C 11,5 C 11,7 C 11,0 C 0,1 C 71 % 74 % 1018,6 hPa 0,0 l/m 1,0 km/h (0 Bft) S 0,00 h 6,8 C 11,0 C 1,2 km/h (1 Bft)
28.05.2022 20:00 11,6 C 14,4 C 10,9 C 14,0 C 14,0 C 2,4 C 74 % 78 % 1018,3 hPa 0,0 l/m 0,1 km/h (0 Bft) N 0,83 h 7,2 C 14,0 C 0,2 km/h (0 Bft)
28.05.2022 21:00 10,4 C 14,5 C 9,2 C 9,9 C 9,0 C 0,0 C 76 % 81 % 1018,4 hPa 0,0 l/m 0,1 km/h (0 Bft) N 0,00 h 6,3 C 9,0 C 0,0 km/h (0 Bft)
28.05.2022 22:00 9,6 C 14,6 C 8,9 C 9,4 C 9,0 C 0,0 C 80 % 83 % 1018,4 hPa 0,0 l/m 0,1 km/h (0 Bft) N 0,00 h 6,3 C 9,0 C 0,2 km/h (0 Bft)
28.05.2022 23:00 9,6 C 14,5 C 8,7 C 9,3 C 8,8 C 0,0 C 80 % 83 % 1018,4 hPa 0,0 l/m 0,1 km/h (0 Bft) N 0,00 h 6,3 C 8,8 C 0,0 km/h (0 Bft)
29.05.2022 00:00 9,6 C 14,5 C 7,5 C 8,7 C 7,0 C 0,0 C 80 % 84 % 1018,3 hPa 0,0 l/m 0,0 km/h (0 Bft) N 0,00 h 6,3 C 7,0 C 0,0 km/h (0 Bft)
29.05.2022 01:00 9,1 C 14,6 C 6,0 C 7,9 C 5,4 C 0,0 C 80 % 85 % 1017,7 hPa 0,0 l/m 0,0 km/h (0 Bft) N 0,00 h 5,9 C 5,4 C 0,0 km/h (0 Bft)
29.05.2022 02:00 6,0 C 14,6 C 4,9 C 5,4 C 4,1 C 0,0 C 83 % 86 % 1017,5 hPa 0,0 l/m 0,0 km/h (0 Bft) N 0,00 h 3,3 C 4,1 C 0,0 km/h (0 Bft)
29.05.2022 03:00 5,3 C 14,4 C 4,0 C 4,5 C 3,0 C 0,0 C 84 % 86 % 1017,3 hPa 0,0 l/m 0,0 km/h (0 Bft) N 0,00 h 2,8 C 3,0 C 0,0 km/h (0 Bft)
29.05.2022 04:00 5,3 C 14,3 C 3,3 C 4,3 C 2,3 C 0,0 C 84 % 86 % 1016,9 hPa 0,0 l/m 0,0 km/h (0 Bft) N 0,00 h 2,8 C 2,3 C 0,0 km/h (0 Bft)
29.05.2022 05:00 5,3 C 14,1 C 3,1 C 4,3 C 2,3 C 0,0 C 84 % 86 % 1016,7 hPa 0,0 l/m 0,0 km/h (0 Bft) N 0,00 h 2,8 C 2,3 C 0,0 km/h (0 Bft)
29.05.2022 06:00 4,9 C 13,9 C 4,2 C 4,8 C 4,2 C 0,2 C 86 % 86 % 1016,4 hPa 0,0 l/m 0,0 km/h (0 Bft) N 0,00 h 2,8 C 4,2 C 0,0 km/h (0 Bft)
29.05.2022 07:00 6,0 C 13,6 C 6,8 C 17,0 C 17,0 C 11,0 C 88 % 86 % 1016,1 hPa 0,0 l/m 0,1 km/h (0 Bft) N 0,92 h 4,1 C 17,0 C 0,2 km/h (0 Bft)
29.05.2022 08:00 10,9 C 13,4 C 8,3 C 22,5 C 22,5 C 11,6 C 79 % 85 % 1016,1 hPa 0,0 l/m 0,4 km/h (0 Bft) N 1,00 h 7,3 C 22,5 C 1,3 km/h (1 Bft)
29.05.2022 09:00 12,0 C 13,4 C 10,1 C 18,8 C 18,8 C 6,8 C 71 % 81 % 1016,3 hPa 0,0 l/m 0,6 km/h (0 Bft) N 1,00 h 6,9 C 18,8 C 1,2 km/h (1 Bft)
29.05.2022 10:00 13,1 C 13,4 C 12,7 C 20,7 C 20,7 C 7,6 C 67 % 72 % 1016,1 hPa 0,0 l/m 0,7 km/h (0 Bft) SW 1,00 h 7,0 C 20,7 C 1,1 km/h (0 Bft)
29.05.2022 11:00 13,7 C 13,3 C 13,8 C 18,5 C 18,5 C 4,9 C 63 % 65 % 1015,8 hPa 0,0 l/m 0,7 km/h (0 Bft) N 1,00 h 6,7 C 18,5 C 1,6 km/h (1 Bft)
29.05.2022 12:00 14,7 C 13,4 C 14,6 C 20,5 C 20,5 C 5,8 C 59 % 59 % 1015,5 hPa 0,0 l/m 1,6 km/h (1 Bft) W 1,00 h 6,8 C 20,5 C 3,0 km/h (1 Bft)
29.05.2022 13:00 17,0 C 13,4 C 15,3 C 22,8 C 22,8 C 5,8 C 54 % 57 % 1014,9 hPa 0,0 l/m 2,0 km/h (1 Bft) S 1,00 h 7,7 C 22,8 C 3,9 km/h (1 Bft)
29.05.2022 14:00 17,4 C 13,5 C 19,5 C 22,9 C 22,9 C 5,5 C 50 % 46 % 1014,9 hPa 0,0 l/m 2,2 km/h (1 Bft) S 1,00 h 6,9 C 22,9 C 2,7 km/h (1 Bft)
29.05.2022 15:00 16,7 C 13,7 C 18,7 C 24,1 C 24,1 C 7,4 C 49 % 45 % 1014,3 hPa 0,0 l/m 2,4 km/h (1 Bft) S 1,00 h 6,0 C 24,1 C 5,0 km/h (1 Bft)
29.05.2022 16:00 16,6 C 13,7 C 17,8 C 23,5 C 23,5 C 6,9 C 48 % 45 % 1013,9 hPa 0,0 l/m 1,7 km/h (1 Bft) SW 1,00 h 5,6 C 23,5 C 2,5 km/h (1 Bft)
29.05.2022 17:00 16,8 C 13,8 C 17,5 C 21,1 C 21,1 C 4,3 C 47 % 45 % 1013,6 hPa 0,0 l/m 0,9 km/h (0 Bft) SW 0,67 h 5,3 C 21,1 C 1,7 km/h (1 Bft)
29.05.2022 18:00 16,3 C 14,0 C 16,1 C 17,5 C 17,5 C 1,2 C 46 % 46 % 1013,3 hPa 0,0 l/m 0,7 km/h (0 Bft) W-SW 0,00 h 4,7 C 17,5 C 1,8 km/h (1 Bft)
29.05.2022 19:00 16,5 C 14,1 C 15,6 C 20,0 C 20,0 C 3,5 C 44 % 46 % 1013,3 hPa 0,0 l/m 0,4 km/h (0 Bft) N 0,75 h 4,3 C 20,0 C 0,3 km/h (0 Bft)
29.05.2022 20:00 15,2 C 14,1 C 13,8 C 17,4 C 17,3 C 2,3 C 48 % 52 % 1013,5 hPa 0,0 l/m 0,3 km/h (0 Bft) N 0,67 h 4,1 C 17,3 C 0,3 km/h (0 Bft)
29.05.2022 21:00 12,6 C 14,3 C 11,5 C 12,1 C 11,1 C 0,0 C 60 % 66 % 1014,1 hPa 0,0 l/m 0,9 km/h (0 Bft) O-NO 0,00 h 5,0 C 11,1 C 1,4 km/h (1 Bft)
29.05.2022 22:00 10,9 C 14,3 C 10,0 C 10,4 C 9,5 C 0,0 C 70 % 76 % 1014,5 hPa 0,0 l/m 0,6 km/h (0 Bft) S-SO 0,00 h 5,6 C 9,5 C 0,6 km/h (0 Bft)
29.05.2022 23:00 10,0 C 14,4 C 9,3 C 9,6 C 9,0 C 0,0 C 76 % 80 % 1014,6 hPa 0,0 l/m 0,1 km/h (0 Bft) N 0,00 h 5,9 C 9,0 C 0,2 km/h (0 Bft)
Min-Datum _ 29.05.22 29.05.22 29.05.22 29.05.22 29.05.22 23.05.22 29.05.22 28.05.22 24.05.22 - 23.05.22 - - 29.05.22 29.05.22 23.05.22
_ Min-Zeit 06:30 10:40 05:05 04:40 05:00 00:00 19:25 14:50 01:05 - 00:00 - - 06:30 05:00 00:00
Minimum _ 4,3 C 13,3 C 3,0 C 4,2 C 1,9 C 0,0 C 43 % 40 % 1003,4 hPa - 0,0 km/h (0 Bft) - - 2,5 C 1,9 C 0,0 km/h (0 Bft)
Max-Datum _ 23.05.22 24.05.22 25.05.22 25.05.22 25.05.22 29.05.22 23.05.22 23.05.22 26.05.22 27.05.22 23.05.22 - 23.05.22 24.05.22 25.05.22 24.05.22
_ Max-Zeit 14:00 22:15 14:10 15:50 15:50 07:50 06:05 04:50 12:25 10:00 13:05 - 07:25 11:50 15:50 02:15
Maximum _ 22,9 C 17,2 C 24,8 C 29,8 C 29,8 C 15,8 C 88 % 87 % 1022,2 hPa 1,4 l/m 10,9 km/h
O-NO (2 Bft)
- 0,08 h 14,8 C 29,8 C 26,1 km/h
S (4 Bft)
Durchschnitt _ 15,1 C 15,8 C 14,8 C 16,9 C 16,6 C 1,9 C 66 % 68 % 1015,5 hPa #1,4 l/m 1,6 km/h (1 Bft) S #44:20 h 8,7 C 16,6 C 2,5 km/h (1 Bft)
2022 www.wetterstation-wechselburg.de